sensor_id;sensor_type;location;lat;lon;timestamp;temperature;humidity
11922;DHT22;6021;51.182;3.160;2023-03-24T00:01:24;12.70;99.90
11922;DHT22;6021;51.182;3.160;2023-03-24T00:03:52;12.50;99.90
11922;DHT22;6021;51.182;3.160;2023-03-24T00:06:21;12.60;99.90
11922;DHT22;6021;51.182;3.160;2023-03-24T00:08:50;12.70;99.90
11922;DHT22;6021;51.182;3.160;2023-03-24T00:11:19;12.50;99.90
11922;DHT22;6021;51.182;3.160;2023-03-24T00:14:07;12.70;99.90
11922;DHT22;6021;51.182;3.160;2023-03-24T00:16:38;12.60;99.90
11922;DHT22;6021;51.182;3.160;2023-03-24T00:19:10;12.60;99.90
11922;DHT22;6021;51.182;3.160;2023-03-24T00:21:45;12.70;99.90
11922;DHT22;6021;51.182;3.160;2023-03-24T00:24:14;12.70;99.90
11922;DHT22;6021;51.182;3.160;2023-03-24T00:26:42;12.60;99.90
11922;DHT22;6021;51.182;3.160;2023-03-24T00:29:11;12.40;99.90
11922;DHT22;6021;51.182;3.160;2023-03-24T00:31:40;12.60;99.90
11922;DHT22;6021;51.182;3.160;2023-03-24T00:34:09;12.30;99.90
11922;DHT22;6021;51.182;3.160;2023-03-24T00:36:39;12.40;99.90
11922;DHT22;6021;51.182;3.160;2023-03-24T00:39:07;12.70;99.90
11922;DHT22;6021;51.182;3.160;2023-03-24T00:41:36;12.10;99.90
11922;DHT22;6021;51.182;3.160;2023-03-24T00:44:04;12.10;99.90
11922;DHT22;6021;51.182;3.160;2023-03-24T00:46:33;12.00;99.90
11922;DHT22;6021;51.182;3.160;2023-03-24T00:49:06;11.70;99.90
11922;DHT22;6021;51.182;3.160;2023-03-24T00:51:38;11.50;99.90
11922;DHT22;6021;51.182;3.160;2023-03-24T00:54:10;11.30;99.90
11922;DHT22;6021;51.182;3.160;2023-03-24T00:56:39;11.20;99.90
11922;DHT22;6021;51.182;3.160;2023-03-24T00:59:09;11.30;99.90
11922;DHT22;6021;51.182;3.160;2023-03-24T01:01:39;10.90;99.90
11922;DHT22;6021;51.182;3.160;2023-03-24T01:04:10;11.30;99.90
11922;DHT22;6021;51.182;3.160;2023-03-24T01:06:40;10.90;99.90
11922;DHT22;6021;51.182;3.160;2023-03-24T01:09:10;10.80;99.90
11922;DHT22;6021;51.182;3.160;2023-03-24T01:11:40;10.70;99.90
11922;DHT22;6021;51.182;3.160;2023-03-24T01:14:10;10.60;99.90
11922;DHT22;6021;51.182;3.160;2023-03-24T01:16:39;10.50;99.90
11922;DHT22;6021;51.182;3.160;2023-03-24T01:19:10;10.70;99.90
11922;DHT22;6021;51.182;3.160;2023-03-24T01:21:40;10.70;99.90
11922;DHT22;6021;51.182;3.160;2023-03-24T01:24:12;10.20;99.90
11922;DHT22;6021;51.182;3.160;2023-03-24T01:26:41;10.40;99.90
11922;DHT22;6021;51.182;3.160;2023-03-24T01:29:09;10.40;99.90
11922;DHT22;6021;51.182;3.160;2023-03-24T01:31:38;10.50;99.90
11922;DHT22;6021;51.182;3.160;2023-03-24T01:34:09;10.30;99.90
11922;DHT22;6021;51.182;3.160;2023-03-24T01:36:39;10.30;99.90
11922;DHT22;6021;51.182;3.160;2023-03-24T01:39:15;10.60;99.90
11922;DHT22;6021;51.182;3.160;2023-03-24T01:41:40;10.50;99.90
11922;DHT22;6021;51.182;3.160;2023-03-24T01:44:28;10.40;99.90
11922;DHT22;6021;51.182;3.160;2023-03-24T01:46:59;10.40;99.90
11922;DHT22;6021;51.182;3.160;2023-03-24T01:49:38;10.30;99.90
11922;DHT22;6021;51.182;3.160;2023-03-24T01:52:06;10.40;99.90
11922;DHT22;6021;51.182;3.160;2023-03-24T01:54:39;10.40;99.90
11922;DHT22;6021;51.182;3.160;2023-03-24T01:57:10;10.50;99.90
11922;DHT22;6021;51.182;3.160;2023-03-24T01:59:43;10.40;99.90
11922;DHT22;6021;51.182;3.160;2023-03-24T02:02:14;10.40;99.90
11922;DHT22;6021;51.182;3.160;2023-03-24T02:04:51;10.40;99.90
11922;DHT22;6021;51.182;3.160;2023-03-24T02:07:33;10.40;99.90
11922;DHT22;6021;51.182;3.160;2023-03-24T02:10:05;10.30;99.90
11922;DHT22;6021;51.182;3.160;2023-03-24T02:12:37;10.30;99.90
11922;DHT22;6021;51.182;3.160;2023-03-24T02:15:06;10.30;99.90
11922;DHT22;6021;51.182;3.160;2023-03-24T02:26:15;10.70;99.90
11922;DHT22;6021;51.182;3.160;2023-03-24T02:37:13;10.00;99.90
11922;DHT22;6021;51.182;3.160;2023-03-24T02:51:04;9.80;99.90
11922;DHT22;6021;51.182;3.160;2023-03-24T02:53:52;9.70;99.90
11922;DHT22;6021;51.182;3.160;2023-03-24T02:56:23;9.80;99.90
11922;DHT22;6021;51.182;3.160;2023-03-24T02:59:04;9.70;99.90
11922;DHT22;6021;51.182;3.160;2023-03-24T03:01:39;9.80;99.90
11922;DHT22;6021;51.182;3.160;2023-03-24T03:04:14;9.70;99.90
11922;DHT22;6021;51.182;3.160;2023-03-24T03:06:50;9.80;99.90
11922;DHT22;6021;51.182;3.160;2023-03-24T03:09:21;9.70;99.90
11922;DHT22;6021;51.182;3.160;2023-03-24T03:11:52;9.60;99.90
11922;DHT22;6021;51.182;3.160;2023-03-24T03:14:36;9.80;99.90
11922;DHT22;6021;51.182;3.160;2023-03-24T03:17:17;9.80;99.90
11922;DHT22;6021;51.182;3.160;2023-03-24T03:19:59;9.90;99.90
11922;DHT22;6021;51.182;3.160;2023-03-24T03:22:27;9.80;99.90
11922;DHT22;6021;51.182;3.160;2023-03-24T03:25:03;9.90;99.90
11922;DHT22;6021;51.182;3.160;2023-03-24T03:27:34;10.30;99.90
11922;DHT22;6021;51.182;3.160;2023-03-24T03:30:12;10.10;99.90
11922;DHT22;6021;51.182;3.160;2023-03-24T03:32:47;10.00;99.90
11922;DHT22;6021;51.182;3.160;2023-03-24T03:35:34;10.10;99.90
11922;DHT22;6021;51.182;3.160;2023-03-24T03:38:17;10.10;99.90
11922;DHT22;6021;51.182;3.160;2023-03-24T03:40:53;10.10;99.90
11922;DHT22;6021;51.182;3.160;2023-03-24T03:43:27;10.30;99.90
11922;DHT22;6021;51.182;3.160;2023-03-24T03:46:02;10.00;99.90
11922;DHT22;6021;51.182;3.160;2023-03-24T03:48:35;10.00;99.90
11922;DHT22;6021;51.182;3.160;2023-03-24T03:51:05;9.90;99.90
11922;DHT22;6021;51.182;3.160;2023-03-24T03:56:26;10.00;99.90
11922;DHT22;6021;51.182;3.160;2023-03-24T03:58:59;9.90;99.90
11922;DHT22;6021;51.182;3.160;2023-03-24T04:01:31;10.00;99.90
11922;DHT22;6021;51.182;3.160;2023-03-24T04:10:02;10.00;99.90
11922;DHT22;6021;51.182;3.160;2023-03-24T04:12:37;9.90;99.90
11922;DHT22;6021;51.182;3.160;2023-03-24T04:20:44;10.10;99.90
11922;DHT22;6021;51.182;3.160;2023-03-24T04:34:32;10.30;99.90
11922;DHT22;6021;51.182;3.160;2023-03-24T04:37:08;10.00;99.90
11922;DHT22;6021;51.182;3.160;2023-03-24T04:39:41;10.00;99.90
11922;DHT22;6021;51.182;3.160;2023-03-24T04:42:17;10.10;99.90
11922;DHT22;6021;51.182;3.160;2023-03-24T04:44:49;10.10;99.90
11922;DHT22;6021;51.182;3.160;2023-03-24T04:47:20;10.20;99.90
11922;DHT22;6021;51.182;3.160;2023-03-24T04:49:49;10.10;99.90
11922;DHT22;6021;51.182;3.160;2023-03-24T04:52:21;10.20;99.90
11922;DHT22;6021;51.182;3.160;2023-03-24T04:54:57;10.10;99.90
11922;DHT22;6021;51.182;3.160;2023-03-24T04:57:26;10.00;99.90
11922;DHT22;6021;51.182;3.160;2023-03-24T04:59:54;10.10;99.90
11922;DHT22;6021;51.182;3.160;2023-03-24T05:02:29;10.10;99.90
11922;DHT22;6021;51.182;3.160;2023-03-24T05:05:05;10.00;99.90
11922;DHT22;6021;51.182;3.160;2023-03-24T05:07:37;10.30;99.90
11922;DHT22;6021;51.182;3.160;2023-03-24T05:10:09;9.90;99.90
11922;DHT22;6021;51.182;3.160;2023-03-24T05:12:37;9.90;99.90
11922;DHT22;6021;51.182;3.160;2023-03-24T05:15:07;10.00;99.90
11922;DHT22;6021;51.182;3.160;2023-03-24T05:17:37;9.90;99.90
11922;DHT22;6021;51.182;3.160;2023-03-24T05:20:09;9.80;99.90
11922;DHT22;6021;51.182;3.160;2023-03-24T05:22:38;9.80;99.90
11922;DHT22;6021;51.182;3.160;2023-03-24T05:25:07;9.80;99.90
11922;DHT22;6021;51.182;3.160;2023-03-24T05:27:36;10.10;99.90
11922;DHT22;6021;51.182;3.160;2023-03-24T05:30:05;10.30;99.90
11922;DHT22;6021;51.182;3.160;2023-03-24T05:32:34;10.00;99.90
11922;DHT22;6021;51.182;3.160;2023-03-24T05:35:04;10.30;99.90
11922;DHT22;6021;51.182;3.160;2023-03-24T05:37:33;10.10;99.90
11922;DHT22;6021;51.182;3.160;2023-03-24T05:40:01;9.90;99.90
11922;DHT22;6021;51.182;3.160;2023-03-24T05:42:30;9.70;99.90
11922;DHT22;6021;51.182;3.160;2023-03-24T05:44:58;9.70;99.90
11922;DHT22;6021;51.182;3.160;2023-03-24T05:47:27;9.60;99.90
11922;DHT22;6021;51.182;3.160;2023-03-24T05:49:55;9.70;99.90
11922;DHT22;6021;51.182;3.160;2023-03-24T05:52:23;9.60;99.90
11922;DHT22;6021;51.182;3.160;2023-03-24T05:54:52;9.40;99.90
11922;DHT22;6021;51.182;3.160;2023-03-24T05:57:20;9.70;99.90
11922;DHT22;6021;51.182;3.160;2023-03-24T05:59:49;9.70;99.90
11922;DHT22;6021;51.182;3.160;2023-03-24T06:02:18;9.70;99.90
11922;DHT22;6021;51.182;3.160;2023-03-24T06:04:47;10.00;99.90
11922;DHT22;6021;51.182;3.160;2023-03-24T06:07:17;10.00;99.90
11922;DHT22;6021;51.182;3.160;2023-03-24T06:09:46;9.90;99.90
11922;DHT22;6021;51.182;3.160;2023-03-24T06:12:16;9.80;99.90
11922;DHT22;6021;51.182;3.160;2023-03-24T06:14:44;10.00;99.90
11922;DHT22;6021;51.182;3.160;2023-03-24T06:17:12;10.00;99.90
11922;DHT22;6021;51.182;3.160;2023-03-24T06:19:43;10.00;99.90
11922;DHT22;6021;51.182;3.160;2023-03-24T06:22:13;10.00;99.90
11922;DHT22;6021;51.182;3.160;2023-03-24T06:24:41;10.10;99.90
11922;DHT22;6021;51.182;3.160;2023-03-24T06:27:10;10.30;99.90
11922;DHT22;6021;51.182;3.160;2023-03-24T06:29:40;10.10;99.90
11922;DHT22;6021;51.182;3.160;2023-03-24T06:32:11;10.10;99.90
11922;DHT22;6021;51.182;3.160;2023-03-24T06:34:40;10.10;99.90
11922;DHT22;6021;51.182;3.160;2023-03-24T06:37:12;10.00;99.90
11922;DHT22;6021;51.182;3.160;2023-03-24T06:39:59;10.30;99.90
11922;DHT22;6021;51.182;3.160;2023-03-24T06:42:20;10.00;99.90
11922;DHT22;6021;51.182;3.160;2023-03-24T06:44:51;10.00;99.90
11922;DHT22;6021;51.182;3.160;2023-03-24T06:47:21;10.00;99.90
11922;DHT22;6021;51.182;3.160;2023-03-24T06:49:49;10.10;99.90
11922;DHT22;6021;51.182;3.160;2023-03-24T06:52:24;10.10;99.90
11922;DHT22;6021;51.182;3.160;2023-03-24T06:55:00;10.20;99.90
11922;DHT22;6021;51.182;3.160;2023-03-24T07:00:05;10.10;99.90
11922;DHT22;6021;51.182;3.160;2023-03-24T07:02:35;10.40;99.90
11922;DHT22;6021;51.182;3.160;2023-03-24T07:05:04;10.30;99.90
11922;DHT22;6021;51.182;3.160;2023-03-24T07:07:35;10.40;99.90
11922;DHT22;6021;51.182;3.160;2023-03-24T07:10:05;10.50;99.90
11922;DHT22;6021;51.182;3.160;2023-03-24T07:12:34;10.40;99.90
11922;DHT22;6021;51.182;3.160;2023-03-24T07:15:03;10.60;99.90
11922;DHT22;6021;51.182;3.160;2023-03-24T07:17:33;10.50;99.90
11922;DHT22;6021;51.182;3.160;2023-03-24T07:20:02;10.40;99.90
11922;DHT22;6021;51.182;3.160;2023-03-24T07:22:32;10.40;99.90
11922;DHT22;6021;51.182;3.160;2023-03-24T07:25:02;10.40;99.90
11922;DHT22;6021;51.182;3.160;2023-03-24T07:27:31;10.60;99.90
11922;DHT22;6021;51.182;3.160;2023-03-24T07:30:00;10.30;99.90
11922;DHT22;6021;51.182;3.160;2023-03-24T07:32:30;10.40;99.90
11922;DHT22;6021;51.182;3.160;2023-03-24T07:35:00;10.30;99.90
11922;DHT22;6021;51.182;3.160;2023-03-24T07:37:28;10.30;99.90
11922;DHT22;6021;51.182;3.160;2023-03-24T07:39:57;10.20;99.90
11922;DHT22;6021;51.182;3.160;2023-03-24T07:42:27;10.20;99.90
11922;DHT22;6021;51.182;3.160;2023-03-24T07:44:55;10.40;99.90
11922;DHT22;6021;51.182;3.160;2023-03-24T07:47:24;10.20;99.90
11922;DHT22;6021;51.182;3.160;2023-03-24T07:49:52;10.10;99.90
11922;DHT22;6021;51.182;3.160;2023-03-24T07:52:21;10.10;99.90
11922;DHT22;6021;51.182;3.160;2023-03-24T07:54:49;10.10;99.90
11922;DHT22;6021;51.182;3.160;2023-03-24T07:57:18;10.20;99.90
11922;DHT22;6021;51.182;3.160;2023-03-24T07:59:46;10.30;99.90
11922;DHT22;6021;51.182;3.160;2023-03-24T08:02:18;10.30;99.90
11922;DHT22;6021;51.182;3.160;2023-03-24T08:04:51;10.40;99.90
11922;DHT22;6021;51.182;3.160;2023-03-24T08:07:23;10.30;99.90
11922;DHT22;6021;51.182;3.160;2023-03-24T08:09:51;10.50;99.90
11922;DHT22;6021;51.182;3.160;2023-03-24T08:12:19;10.60;99.90
11922;DHT22;6021;51.182;3.160;2023-03-24T08:14:47;10.90;99.90
11922;DHT22;6021;51.182;3.160;2023-03-24T08:17:16;10.90;99.90
11922;DHT22;6021;51.182;3.160;2023-03-24T08:19:44;10.90;99.90
11922;DHT22;6021;51.182;3.160;2023-03-24T08:22:14;11.00;99.90
11922;DHT22;6021;51.182;3.160;2023-03-24T08:24:42;10.70;99.90
11922;DHT22;6021;51.182;3.160;2023-03-24T08:27:11;11.20;99.90
11922;DHT22;6021;51.182;3.160;2023-03-24T08:29:39;10.90;99.90
11922;DHT22;6021;51.182;3.160;2023-03-24T08:32:07;11.00;99.90
11922;DHT22;6021;51.182;3.160;2023-03-24T08:34:36;11.20;99.90
11922;DHT22;6021;51.182;3.160;2023-03-24T08:37:04;11.20;99.90
11922;DHT22;6021;51.182;3.160;2023-03-24T08:39:33;11.30;99.90
11922;DHT22;6021;51.182;3.160;2023-03-24T08:42:02;11.00;99.90
11922;DHT22;6021;51.182;3.160;2023-03-24T08:44:32;11.40;99.90
11922;DHT22;6021;51.182;3.160;2023-03-24T08:47:00;11.50;99.90
11922;DHT22;6021;51.182;3.160;2023-03-24T08:49:29;11.40;99.90
11922;DHT22;6021;51.182;3.160;2023-03-24T08:51:57;11.40;99.90
11922;DHT22;6021;51.182;3.160;2023-03-24T08:54:26;11.30;99.90
11922;DHT22;6021;51.182;3.160;2023-03-24T08:56:54;11.30;99.90
11922;DHT22;6021;51.182;3.160;2023-03-24T08:59:22;11.60;99.90
11922;DHT22;6021;51.182;3.160;2023-03-24T09:01:51;11.10;99.90
11922;DHT22;6021;51.182;3.160;2023-03-24T09:04:19;11.30;99.90
11922;DHT22;6021;51.182;3.160;2023-03-24T09:06:48;11.30;99.90
11922;DHT22;6021;51.182;3.160;2023-03-24T09:09:16;11.60;99.90
11922;DHT22;6021;51.182;3.160;2023-03-24T09:11:45;11.50;99.90
11922;DHT22;6021;51.182;3.160;2023-03-24T09:14:14;12.00;99.90
11922;DHT22;6021;51.182;3.160;2023-03-24T09:16:43;11.80;99.90
11922;DHT22;6021;51.182;3.160;2023-03-24T09:19:13;11.90;99.90
11922;DHT22;6021;51.182;3.160;2023-03-24T09:21:46;12.00;99.90
11922;DHT22;6021;51.182;3.160;2023-03-24T09:24:15;11.90;99.90
11922;DHT22;6021;51.182;3.160;2023-03-24T09:26:43;11.80;99.90
11922;DHT22;6021;51.182;3.160;2023-03-24T09:29:13;11.60;99.90
11922;DHT22;6021;51.182;3.160;2023-03-24T09:31:56;11.70;99.90
11922;DHT22;6021;51.182;3.160;2023-03-24T09:34:29;11.90;99.90
11922;DHT22;6021;51.182;3.160;2023-03-24T09:37:00;11.80;99.90
11922;DHT22;6021;51.182;3.160;2023-03-24T09:39:28;12.20;99.90
11922;DHT22;6021;51.182;3.160;2023-03-24T09:41:57;12.50;99.90
11922;DHT22;6021;51.182;3.160;2023-03-24T09:44:28;12.70;99.90
11922;DHT22;6021;51.182;3.160;2023-03-24T09:47:02;12.70;99.90
11922;DHT22;6021;51.182;3.160;2023-03-24T09:49:33;12.70;80.20
11922;DHT22;6021;51.182;3.160;2023-03-24T09:52:09;12.80;64.10
11922;DHT22;6021;51.182;3.160;2023-03-24T09:54:56;12.80;25.40
11922;DHT22;6021;51.182;3.160;2023-03-24T09:57:40;12.70;12.00
11922;DHT22;6021;51.182;3.160;2023-03-24T10:00:25;12.80;21.00
11922;DHT22;6021;51.182;3.160;2023-03-24T10:02:59;12.80;25.30
11922;DHT22;6021;51.182;3.160;2023-03-24T10:05:47;12.60;16.70
11922;DHT22;6021;51.182;3.160;2023-03-24T10:08:24;12.70;7.10
11922;DHT22;6021;51.182;3.160;2023-03-24T10:13:55;12.70;6.80
11922;DHT22;6021;51.182;3.160;2023-03-24T10:16:33;12.60;1.00
11922;DHT22;6021;51.182;3.160;2023-03-24T10:21:39;13.10;9.70
11922;DHT22;6021;51.182;3.160;2023-03-24T10:24:25;13.40;1.00
11922;DHT22;6021;51.182;3.160;2023-03-24T10:27:19;13.50;1.00
11922;DHT22;6021;51.182;3.160;2023-03-24T10:29:34;13.40;1.00
11922;DHT22;6021;51.182;3.160;2023-03-24T10:32:14;13.40;1.00
11922;DHT22;6021;51.182;3.160;2023-03-24T10:34:40;13.40;1.00
11922;DHT22;6021;51.182;3.160;2023-03-24T10:37:11;13.30;1.00
11922;DHT22;6021;51.182;3.160;2023-03-24T10:40:00;13.30;1.00
11922;DHT22;6021;51.182;3.160;2023-03-24T10:42:32;13.30;1.00
11922;DHT22;6021;51.182;3.160;2023-03-24T10:45:02;13.30;2.90
11922;DHT22;6021;51.182;3.160;2023-03-24T10:47:31;13.20;1.00
11922;DHT22;6021;51.182;3.160;2023-03-24T10:50:04;13.10;1.00
11922;DHT22;6021;51.182;3.160;2023-03-24T10:52:39;13.10;1.00
11922;DHT22;6021;51.182;3.160;2023-03-24T10:55:13;13.00;24.10
11922;DHT22;6021;51.182;3.160;2023-03-24T10:57:42;12.40;91.90
11922;DHT22;6021;51.182;3.160;2023-03-24T11:00:23;12.10;99.90
11922;DHT22;6021;51.182;3.160;2023-03-24T11:03:10;11.70;99.90
11922;DHT22;6021;51.182;3.160;2023-03-24T11:05:38;11.40;99.90
11922;DHT22;6021;51.182;3.160;2023-03-24T11:10:45;11.00;99.90
11922;DHT22;6021;51.182;3.160;2023-03-24T11:13:31;11.40;99.90
11922;DHT22;6021;51.182;3.160;2023-03-24T11:16:14;11.40;99.90
11922;DHT22;6021;51.182;3.160;2023-03-24T11:21:43;12.10;99.90
11922;DHT22;6021;51.182;3.160;2023-03-24T11:24:14;12.00;99.90
11922;DHT22;6021;51.182;3.160;2023-03-24T11:26:55;11.90;99.90
11922;DHT22;6021;51.182;3.160;2023-03-24T11:29:25;12.00;99.90
11922;DHT22;6021;51.182;3.160;2023-03-24T11:32:01;12.10;99.90
11922;DHT22;6021;51.182;3.160;2023-03-24T11:34:33;12.10;99.90
11922;DHT22;6021;51.182;3.160;2023-03-24T11:37:11;12.30;99.90
11922;DHT22;6021;51.182;3.160;2023-03-24T11:39:40;12.30;99.90
11922;DHT22;6021;51.182;3.160;2023-03-24T11:42:15;12.30;99.90
11922;DHT22;6021;51.182;3.160;2023-03-24T11:44:47;12.20;99.90
11922;DHT22;6021;51.182;3.160;2023-03-24T11:47:37;12.20;99.90
11922;DHT22;6021;51.182;3.160;2023-03-24T11:53:09;11.80;99.90
11922;DHT22;6021;51.182;3.160;2023-03-24T11:55:53;11.50;99.90
11922;DHT22;6021;51.182;3.160;2023-03-24T11:58:29;11.10;99.90
11922;DHT22;6021;51.182;3.160;2023-03-24T12:03:57;10.50;99.90
11922;DHT22;6021;51.182;3.160;2023-03-24T12:14:16;11.30;99.90
11922;DHT22;6021;51.182;3.160;2023-03-24T12:17:01;11.50;99.90
11922;DHT22;6021;51.182;3.160;2023-03-24T12:19:28;11.70;99.90
11922;DHT22;6021;51.182;3.160;2023-03-24T12:22:18;12.00;99.90
11922;DHT22;6021;51.182;3.160;2023-03-24T12:27:26;12.40;99.90
11922;DHT22;6021;51.182;3.160;2023-03-24T12:32:57;12.60;99.90
11922;DHT22;6021;51.182;3.160;2023-03-24T12:55:28;12.30;99.90
11922;DHT22;6021;51.182;3.160;2023-03-24T12:58:01;12.40;99.90
11922;DHT22;6021;51.182;3.160;2023-03-24T13:00:50;12.40;99.90
11922;DHT22;6021;51.182;3.160;2023-03-24T13:03:17;12.60;99.90
11922;DHT22;6021;51.182;3.160;2023-03-24T13:05:49;12.80;99.90
11922;DHT22;6021;51.182;3.160;2023-03-24T13:08:22;12.80;86.10
11922;DHT22;6021;51.182;3.160;2023-03-24T13:10:57;12.70;71.00
11922;DHT22;6021;51.182;3.160;2023-03-24T13:13:36;12.70;99.90
11922;DHT22;6021;51.182;3.160;2023-03-24T13:16:18;12.70;99.60
11922;DHT22;6021;51.182;3.160;2023-03-24T13:18:50;12.70;38.30
11922;DHT22;6021;51.182;3.160;2023-03-24T13:21:21;12.60;99.90
11922;DHT22;6021;51.182;3.160;2023-03-24T13:24:10;12.90;99.90
11922;DHT22;6021;51.182;3.160;2023-03-24T13:31:55;13.00;90.50
11922;DHT22;6021;51.182;3.160;2023-03-24T13:34:28;13.10;79.60
11922;DHT22;6021;51.182;3.160;2023-03-24T13:37:09;13.10;17.00
11922;DHT22;6021;51.182;3.160;2023-03-24T13:39:36;13.20;79.90
11922;DHT22;6021;51.182;3.160;2023-03-24T13:42:06;13.30;31.30
11922;DHT22;6021;51.182;3.160;2023-03-24T13:44:41;13.20;70.60
11922;DHT22;6021;51.182;3.160;2023-03-24T13:47:17;13.10;36.70
11922;DHT22;6021;51.182;3.160;2023-03-24T13:50:00;13.00;1.00
11922;DHT22;6021;51.182;3.160;2023-03-24T13:52:36;12.90;20.00
11922;DHT22;6021;51.182;3.160;2023-03-24T13:55:13;13.00;1.00
11922;DHT22;6021;51.182;3.160;2023-03-24T13:57:50;13.00;15.30
11922;DHT22;6021;51.182;3.160;2023-03-24T14:00:18;13.30;7.50
11922;DHT22;6021;51.182;3.160;2023-03-24T14:02:49;13.40;10.10
11922;DHT22;6021;51.182;3.160;2023-03-24T14:05:33;13.80;1.00
11922;DHT22;6021;51.182;3.160;2023-03-24T14:10:49;13.60;1.00
11922;DHT22;6021;51.182;3.160;2023-03-24T14:13:21;13.60;1.00
11922;DHT22;6021;51.182;3.160;2023-03-24T14:15:56;13.40;1.00
11922;DHT22;6021;51.182;3.160;2023-03-24T14:20:59;13.30;1.00
11922;DHT22;6021;51.182;3.160;2023-03-24T14:23:47;13.20;1.00
11922;DHT22;6021;51.182;3.160;2023-03-24T14:28:56;13.10;1.00
11922;DHT22;6021;51.182;3.160;2023-03-24T14:31:30;13.10;1.00
11922;DHT22;6021;51.182;3.160;2023-03-24T14:34:05;13.00;1.00
11922;DHT22;6021;51.182;3.160;2023-03-24T14:36:33;13.10;1.00
11922;DHT22;6021;51.182;3.160;2023-03-24T14:41:58;13.10;1.00
11922;DHT22;6021;51.182;3.160;2023-03-24T14:47:42;13.30;1.00
11922;DHT22;6021;51.182;3.160;2023-03-24T14:49:52;13.00;1.00
11922;DHT22;6021;51.182;3.160;2023-03-24T14:52:36;12.90;1.00
11922;DHT22;6021;51.182;3.160;2023-03-24T14:55:08;12.90;1.00
11922;DHT22;6021;51.182;3.160;2023-03-24T14:57:42;13.10;1.00
11922;DHT22;6021;51.182;3.160;2023-03-24T15:00:40;13.30;1.00
11922;DHT22;6021;51.182;3.160;2023-03-24T15:03:35;13.50;1.00
11922;DHT22;6021;51.182;3.160;2023-03-24T15:06:14;13.50;1.00
11922;DHT22;6021;51.182;3.160;2023-03-24T15:08:33;13.60;1.00
11922;DHT22;6021;51.182;3.160;2023-03-24T15:11:08;13.40;1.00
11922;DHT22;6021;51.182;3.160;2023-03-24T15:13:53;13.30;1.00
11922;DHT22;6021;51.182;3.160;2023-03-24T15:16:20;13.20;1.00
11922;DHT22;6021;51.182;3.160;2023-03-24T15:21:45;13.20;1.00
11922;DHT22;6021;51.182;3.160;2023-03-24T15:26:53;13.50;1.00
11922;DHT22;6021;51.182;3.160;2023-03-24T15:29:22;13.30;1.00
11922;DHT22;6021;51.182;3.160;2023-03-24T15:31:51;13.40;1.00
11922;DHT22;6021;51.182;3.160;2023-03-24T15:34:28;13.50;1.00
11922;DHT22;6021;51.182;3.160;2023-03-24T15:36:59;13.50;1.00
11922;DHT22;6021;51.182;3.160;2023-03-24T15:39:36;13.50;1.00
11922;DHT22;6021;51.182;3.160;2023-03-24T15:42:13;13.70;1.00
11922;DHT22;6021;51.182;3.160;2023-03-24T15:44:39;13.30;1.00
11922;DHT22;6021;51.182;3.160;2023-03-24T15:47:28;13.30;1.00
11922;DHT22;6021;51.182;3.160;2023-03-24T15:49:59;13.20;1.00
11922;DHT22;6021;51.182;3.160;2023-03-24T15:52:35;13.40;1.00
11922;DHT22;6021;51.182;3.160;2023-03-24T15:55:07;13.30;1.00
11922;DHT22;6021;51.182;3.160;2023-03-24T15:57:40;13.40;1.00
11922;DHT22;6021;51.182;3.160;2023-03-24T16:00:13;13.50;1.00
11922;DHT22;6021;51.182;3.160;2023-03-24T16:02:54;13.50;1.00
11922;DHT22;6021;51.182;3.160;2023-03-24T16:05:26;13.40;1.00
11922;DHT22;6021;51.182;3.160;2023-03-24T16:08:04;13.30;1.00
11922;DHT22;6021;51.182;3.160;2023-03-24T16:10:40;13.20;1.00
11922;DHT22;6021;51.182;3.160;2023-03-24T16:13:20;13.10;1.00
11922;DHT22;6021;51.182;3.160;2023-03-24T16:18:46;13.10;1.00
11922;DHT22;6021;51.182;3.160;2023-03-24T16:21:20;13.20;1.00
11922;DHT22;6021;51.182;3.160;2023-03-24T16:23:51;13.20;1.00
11922;DHT22;6021;51.182;3.160;2023-03-24T16:26:21;13.10;1.00
11922;DHT22;6021;51.182;3.160;2023-03-24T16:28:52;13.30;1.00
11922;DHT22;6021;51.182;3.160;2023-03-24T16:31:23;13.00;1.00
11922;DHT22;6021;51.182;3.160;2023-03-24T16:33:52;13.00;1.00
11922;DHT22;6021;51.182;3.160;2023-03-24T16:36:21;12.90;1.00
11922;DHT22;6021;51.182;3.160;2023-03-24T16:38:57;12.90;1.00
11922;DHT22;6021;51.182;3.160;2023-03-24T16:41:28;13.00;1.00
11922;DHT22;6021;51.182;3.160;2023-03-24T16:43:56;12.40;1.00
11922;DHT22;6021;51.182;3.160;2023-03-24T16:46:29;12.50;1.00
11922;DHT22;6021;51.182;3.160;2023-03-24T16:48:59;12.40;1.00
11922;DHT22;6021;51.182;3.160;2023-03-24T16:51:27;12.30;1.00
11922;DHT22;6021;51.182;3.160;2023-03-24T16:53:56;12.20;1.00
11922;DHT22;6021;51.182;3.160;2023-03-24T16:56:25;12.30;1.00
11922;DHT22;6021;51.182;3.160;2023-03-24T16:58:53;12.40;1.00
11922;DHT22;6021;51.182;3.160;2023-03-24T17:01:31;12.40;1.00
11922;DHT22;6021;51.182;3.160;2023-03-24T17:04:15;12.30;1.00
11922;DHT22;6021;51.182;3.160;2023-03-24T17:06:47;12.30;1.00
11922;DHT22;6021;51.182;3.160;2023-03-24T17:09:17;12.30;1.00
11922;DHT22;6021;51.182;3.160;2023-03-24T17:11:55;12.20;1.00
11922;DHT22;6021;51.182;3.160;2023-03-24T17:14:25;12.00;1.00
11922;DHT22;6021;51.182;3.160;2023-03-24T17:16:53;12.20;1.00
11922;DHT22;6021;51.182;3.160;2023-03-24T17:19:22;11.70;1.00
11922;DHT22;6021;51.182;3.160;2023-03-24T17:21:57;11.90;1.00
11922;DHT22;6021;51.182;3.160;2023-03-24T17:24:25;11.90;1.00
11922;DHT22;6021;51.182;3.160;2023-03-24T17:26:54;12.00;1.00
11922;DHT22;6021;51.182;3.160;2023-03-24T17:29:23;11.70;1.00
11922;DHT22;6021;51.182;3.160;2023-03-24T17:31:52;11.80;1.00
11922;DHT22;6021;51.182;3.160;2023-03-24T17:34:22;11.90;1.00
11922;DHT22;6021;51.182;3.160;2023-03-24T17:36:50;11.80;1.00
11922;DHT22;6021;51.182;3.160;2023-03-24T17:39:19;11.90;1.00
11922;DHT22;6021;51.182;3.160;2023-03-24T17:41:48;11.90;1.00
11922;DHT22;6021;51.182;3.160;2023-03-24T17:44:16;11.40;1.00
11922;DHT22;6021;51.182;3.160;2023-03-24T17:46:45;11.40;1.00
11922;DHT22;6021;51.182;3.160;2023-03-24T17:49:13;11.30;1.00
11922;DHT22;6021;51.182;3.160;2023-03-24T17:51:41;11.20;1.00
11922;DHT22;6021;51.182;3.160;2023-03-24T17:54:10;11.10;1.00
11922;DHT22;6021;51.182;3.160;2023-03-24T17:56:39;11.00;1.00
11922;DHT22;6021;51.182;3.160;2023-03-24T17:59:07;10.90;1.00
11922;DHT22;6021;51.182;3.160;2023-03-24T18:01:36;10.70;1.50
11922;DHT22;6021;51.182;3.160;2023-03-24T18:04:05;10.70;33.60
11922;DHT22;6021;51.182;3.160;2023-03-24T18:06:34;10.90;29.50
11922;DHT22;6021;51.182;3.160;2023-03-24T18:09:04;11.00;12.00
11922;DHT22;6021;51.182;3.160;2023-03-24T18:11:34;11.20;9.00
11922;DHT22;6021;51.182;3.160;2023-03-24T18:14:02;11.40;11.10
11922;DHT22;6021;51.182;3.160;2023-03-24T18:16:31;11.10;1.00
11922;DHT22;6021;51.182;3.160;2023-03-24T18:19:01;11.60;4.70
11922;DHT22;6021;51.182;3.160;2023-03-24T18:21:30;11.40;1.00
11922;DHT22;6021;51.182;3.160;2023-03-24T18:23:59;11.30;3.80
11922;DHT22;6021;51.182;3.160;2023-03-24T18:26:27;11.30;5.10
11922;DHT22;6021;51.182;3.160;2023-03-24T18:28:56;11.00;1.00
11922;DHT22;6021;51.182;3.160;2023-03-24T18:31:24;11.20;1.00
11922;DHT22;6021;51.182;3.160;2023-03-24T18:33:53;11.20;1.00
11922;DHT22;6021;51.182;3.160;2023-03-24T18:36:22;11.30;1.00
11922;DHT22;6021;51.182;3.160;2023-03-24T18:39:03;11.20;1.00